Home > Products > Valid Products > TAF

000
FTUS43 KTOP 011100
TAFTOP
TAF
KTOP 011123Z 0112/0212 13009KT P6SM BKN250
     FM011400 16012G22KT P6SM FEW030
     FM011800 17018G28KT P6SM SCT040
     FM020600 19012G21KT P6SM VCTS BKN035CB
     FM020800 33011G19KT 4SM -TSRA OVC012CB=



000
FTUS43 KTOP 010500
TAFTOP
TAF
KTOP 010520Z 0106/0206 12006KT P6SM SKC
     FM011400 16012G22KT P6SM FEW030 SCT070
     FM011800 17018G28KT P6SM SCT030=



000
FTUS43 KTOP 010500
TAFTOP
TAF
KTOP 010520Z 0106/0206 12006KT P6SM SKC
     FM011400 16012G22KT P6SM FEW030 SCT070
     FM011800 17018G28KT P6SM SCT030=



000
FTUS43 KTOP 312300
TAFTOP
TAF
KTOP 312329Z 0100/0124 13006KT P6SM SKC
     FM011400 16012G22KT P6SM FEW030 SCT070
     FM011800 17018G28KT P6SM SCT030=



000
FTUS43 KTOP 312300
TAFTOP
TAF
KTOP 312329Z 0100/0124 13006KT P6SM SKC
     FM011400 16012G22KT P6SM FEW030 SCT070
     FM011800 17018G28KT P6SM SCT030=



000
FTUS43 KTOP 311700
TAFTOP
TAF
KTOP 311720Z 3118/0118 10011KT P6SM SKC
     FM010100 13005KT P6SM SKC
     FM011400 16012G22KT P6SM FEW030 SCT070=



000
FTUS43 KTOP 311700
TAFTOP
TAF
KTOP 311720Z 3118/0118 10011KT P6SM SKC
     FM010100 13005KT P6SM SKC
     FM011400 16012G22KT P6SM FEW030 SCT070=



000
FTUS43 KTOP 311100
TAFTOP
TAF
KTOP 311120Z 3112/0112 02004KT P6SM SKC
     FM311600 07009KT P6SM SKC
     FM010000 11004KT P6SM SKC=



000
FTUS43 KTOP 310500
TAFTOP
TAF
KTOP 310520Z 3106/0106 VRB03KT P6SM SKC
     FM311600 08007KT P6SM SKC=



000
FTUS43 KTOP 310500
TAFTOP
TAF
KTOP 310520Z 3106/0106 VRB03KT P6SM SKC
     FM311600 08007KT P6SM SKC=



000
FTUS43 KTOP 302300
TAFTOP
TAF
KTOP 302339Z 3100/3124 21014G21KT P6SM SKC
     FM310100 VRB03KT P6SM SKC
     FM311600 07007KT P6SM SKC=



000
FTUS43 KTOP 302300
TAFTOP
TAF
KTOP 302339Z 3100/3124 21014G21KT P6SM SKC
     FM310100 VRB03KT P6SM SKC
     FM311600 07007KT P6SM SKC=



000
FTUS43 KTOP 301700
TAFTOP
TAF
KTOP 301720Z 3018/3118 21014G21KT P6SM SKC
     FM310100 21005KT P6SM SKC
     FM311600 06007KT P6SM SKC=



000
FTUS43 KTOP 301700
TAFTOP
TAF
KTOP 301720Z 3018/3118 21014G21KT P6SM SKC
     FM310100 21005KT P6SM SKC
     FM311600 06007KT P6SM SKC=



000
FTUS43 KTOP 301100
TAFTOP
TAF
KTOP 301122Z 3012/3112 19003KT P6SM SKC
     FM301600 21013G21KT P6SM SCT150
     FM310100 21005KT P6SM SKC=



000
FTUS43 KTOP 301100
TAFTOP
TAF
KTOP 301122Z 3012/3112 19003KT P6SM SKC
     FM301600 21013G21KT P6SM SCT150
     FM310100 21005KT P6SM SKC=



000
FTUS43 KTOP 300500
TAFTOP
TAF
KTOP 300520Z 3006/3106 VRB02KT P6SM SKC
     FM301500 21014G20KT P6SM SCT150
     FM310100 21005KT P6SM SCT250=



000
FTUS43 KTOP 300500
TAFTOP
TAF
KTOP 300520Z 3006/3106 VRB02KT P6SM SKC
     FM301500 21014G20KT P6SM SCT150
     FM310100 21005KT P6SM SCT250=



000
FTUS43 KTOP 292300
TAFTOP
TAF
KTOP 292320Z 3000/3024 33017G25KT P6SM SKC
     FM300100 VRB02KT P6SM SKC
     FM301500 21014G20KT P6SM SCT150=



000
FTUS43 KTOP 292300
TAFTOP
TAF
KTOP 292320Z 3000/3024 33017G25KT P6SM SKC
     FM300100 VRB02KT P6SM SKC
     FM301500 21014G20KT P6SM SCT150=



000
FTUS43 KTOP 291700
TAFTOP
TAF
KTOP 291720Z 2918/3018 33017G25KT P6SM SCT150
     FM300100 VRB02KT P6SM SKC
     FM301400 20007KT P6SM SCT150=



000
FTUS43 KTOP 291700
TAFTOP
TAF
KTOP 291720Z 2918/3018 33017G25KT P6SM SCT150
     FM300100 VRB02KT P6SM SKC
     FM301400 20007KT P6SM SCT150=



000
FTUS43 KTOP 291600 AAA
TAFTOP
TAF AMD
KTOP 291606Z 2916/3012 25011KT P6SM BKN150
     FM291800 33017G25KT P6SM SCT150
     FM300100 30002KT P6SM SKC=



    US Dept of Commerce
    National Oceanic and Atmospheric Administration
    National Weather Service
    1325 East West Highway
    Silver Spring, MD 20910
    Page Author: NWS Internet Services Team
Disclaimer
Information Quality
Credits
Glossary
Privacy Policy
Freedom of Information Act (FOIA)
About Us
Career Opportunities